Millville Municipal Airport
KMIV : now visible

Airfield :











YOU CAN JOIN US ON...

 
LOGIN :

Register | Disclaimer

   EN    FR    IT 

 









Legend :    VFR   Marginal VFR   IFR   Intensive IFR   Very Intensive IFR
Visi :
Ceiling :
>= 8 km
>= 3000ft
5 to 8 km
1000 to 3000 ft
1500m to 5 km
500 to 1000 ft
800 to 1500m
200 to 500 ft
< 800m
< 200 ft
Symbols :   Thunderstorms  Fog  Heavy snow  Heavy precipitations  Wind > 20 kt







- Airport Elevation : 85 ft


KMIV - Millville Municipal

CURRENT METAR :
  • 211754Z AUTO VRB06KT 10SM FEW042 BKN050 18/09 A3000 RMK AO2 SLP157 T01830089 10189 20133 50006

EXPIRED METARs :
  • 211654Z AUTO 10SM SCT042 18/08 A3000 RMK AO2 SLP158 T01780078
  • 211554Z AUTO VRB04KT 10SM FEW041 18/07 A3000 RMK AO2 SLP157 T01780067

TAF KMIV
Valid from the 21 at 18:00 until the 22 at 18:00 UTC


211724Z 2118/2218 21005KT P6SM BKN060
FM220100 VRB03KT P6SM BKN070
FM221100 36005KT P6SM OVC070
FM221500 01010KT P6SM BKN070
KZDC FIR / North America



MET'MAP, your aeronautical weather chart ! - Copyright ORBIFLY December 2007 - Disclaimer

ORBIFLY MET'MAP TEAM :

Programming & Development : Alexandra Zaïnal
Concept & Development : Baudouin d'Aumeries
Co-Development & Prog : Marc-Olivier Méhu
Technical & hardware support : Manuel Goepfert

Contact : metmap@orbifly.com




SOURCES & CREDITS :

   NOAA       Earth
Advisory